createdAt,value
2022-11-17T00:00:48.416Z,772.07
2022-11-17T00:01:48.412Z,772.07
2022-11-17T00:02:48.853Z,772.04
2022-11-17T00:03:48.422Z,772.34
2022-11-17T00:04:48.416Z,772.8
2022-11-17T00:05:48.419Z,772.57
2022-11-17T00:06:48.424Z,772.75
2022-11-17T00:07:48.425Z,772.91
2022-11-17T00:08:48.420Z,773.15
2022-11-17T00:09:48.425Z,773.96
2022-11-17T00:10:48.424Z,773.99
2022-11-17T00:11:48.465Z,774.4
2022-11-17T00:12:48.431Z,774.7
2022-11-17T00:13:48.428Z,775.48
2022-11-17T00:14:48.429Z,775.6
2022-11-17T00:15:48.499Z,775.92
2022-11-17T00:16:48.435Z,777.1
2022-11-17T00:17:48.436Z,777.42
2022-11-17T00:18:48.554Z,777.39
2022-11-17T00:19:48.437Z,777.97
2022-11-17T00:20:48.437Z,778.81
2022-11-17T00:21:48.439Z,778.32
2022-11-17T00:22:48.445Z,779.08
2022-11-17T00:23:48.619Z,779.52
2022-11-17T00:24:48.445Z,779.68
2022-11-17T00:25:48.449Z,780.63
2022-11-17T00:26:48.452Z,781.05
2022-11-17T00:27:48.446Z,781.45
2022-11-17T00:28:48.455Z,782.26
2022-11-17T00:29:48.449Z,782.67
2022-11-17T00:30:48.452Z,782.84
2022-11-17T00:31:48.454Z,783.9
2022-11-17T00:32:48.456Z,783.69
2022-11-17T00:33:48.453Z,783.94
2022-11-17T00:34:48.573Z,784.54
2022-11-17T00:35:48.463Z,784.39
2022-11-17T00:36:48.458Z,784.92
2022-11-17T00:37:48.459Z,785.6
2022-11-17T00:38:48.459Z,786.15
2022-11-17T00:39:48.465Z,786.75
2022-11-17T00:40:48.463Z,787.08
2022-11-17T00:41:48.473Z,787.33
2022-11-17T00:42:48.467Z,787.96
2022-11-17T00:43:48.464Z,788.39
2022-11-17T00:44:51.280Z,788.66
2022-11-17T00:45:48.471Z,789.16
2022-11-17T00:46:48.475Z,789.09
2022-11-17T00:47:48.474Z,789.91
2022-11-17T00:48:48.474Z,789.6
2022-11-17T00:49:48.480Z,790.29
2022-11-17T00:50:48.592Z,790.94
2022-11-17T00:51:48.477Z,791.64
2022-11-17T00:52:48.481Z,792.8
2022-11-17T00:53:48.482Z,792.59
2022-11-17T00:54:48.486Z,792.87
2022-11-17T00:55:48.529Z,792.88
2022-11-17T00:56:48.486Z,793.06
2022-11-17T00:57:49.646Z,793.61
2022-11-17T00:58:48.684Z,794.33
2022-11-17T00:59:48.491Z,794.77
2022-11-17T01:00:48.489Z,795.75
2022-11-17T01:01:48.501Z,795.87
2022-11-17T01:02:48.500Z,796.14
2022-11-17T01:03:48.494Z,796.81
2022-11-17T01:04:48.517Z,797.94
2022-11-17T01:05:48.500Z,798.14
2022-11-17T01:06:48.660Z,798.59
2022-11-17T01:07:48.503Z,799.29
2022-11-17T01:08:48.514Z,799.63
2022-11-17T01:09:48.530Z,800.47
2022-11-17T01:10:48.525Z,801.69
2022-11-17T01:11:48.515Z,802.26
2022-11-17T01:12:48.510Z,803.25
2022-11-17T01:13:48.513Z,803.32
2022-11-17T01:14:48.538Z,803.66
2022-11-17T01:15:48.526Z,804.25
2022-11-17T01:16:51.379Z,804.96
2022-11-17T01:17:48.530Z,805.27
2022-11-17T01:18:48.534Z,805.89
2022-11-17T01:19:48.567Z,806
2022-11-17T01:20:48.529Z,806.12
2022-11-17T01:21:48.535Z,805.91
2022-11-17T01:22:48.547Z,806.07
2022-11-17T01:23:48.581Z,806.1
2022-11-17T01:24:48.563Z,806.58
2022-11-17T01:25:48.535Z,806.98
2022-11-17T01:26:48.544Z,807.43
2022-11-17T01:27:51.646Z,807.47
2022-11-17T01:28:48.536Z,808.15
2022-11-17T01:29:48.597Z,808.28
2022-11-17T01:30:48.536Z,808.4
2022-11-17T01:31:48.559Z,808.42
2022-11-17T01:32:48.540Z,808.69
2022-11-17T01:33:48.544Z,809.26
2022-11-17T01:34:48.581Z,808.65
2022-11-17T01:35:48.542Z,809.37
2022-11-17T01:36:48.543Z,809.74
2022-11-17T01:37:48.544Z,809.86
2022-11-17T01:38:51.560Z,810.01
2022-11-17T01:39:48.580Z,810.23
2022-11-17T01:40:48.544Z,810.81
2022-11-17T01:41:48.547Z,811.5
2022-11-17T01:42:48.552Z,811.45
2022-11-17T01:43:48.557Z,812.02
2022-11-17T01:44:48.580Z,812.17
2022-11-17T01:45:48.552Z,812.09
2022-11-17T01:46:48.555Z,811.93
2022-11-17T01:47:48.556Z,812.32
2022-11-17T01:48:48.561Z,813.03
2022-11-17T01:49:52.130Z,813.48
2022-11-17T01:50:48.561Z,813.96
2022-11-17T01:51:48.561Z,814.89
2022-11-17T01:52:48.566Z,814.63
2022-11-17T01:53:48.567Z,815.69
2022-11-17T01:54:48.678Z,815.97
2022-11-17T01:55:48.564Z,816.15
2022-11-17T01:56:48.570Z,816.48
2022-11-17T01:57:48.566Z,817.52
2022-11-17T01:58:48.568Z,817.44
2022-11-17T01:59:48.573Z,817.76
2022-11-17T02:00:51.596Z,818.08
2022-11-17T02:01:48.616Z,818.74
2022-11-17T02:02:48.585Z,819.29
2022-11-17T02:03:48.580Z,819.94
2022-11-17T02:04:48.575Z,820.22
2022-11-17T02:05:48.579Z,820.64
2022-11-17T02:06:48.597Z,821.2
2022-11-17T02:07:48.586Z,821.22
2022-11-17T02:08:48.591Z,821.8
2022-11-17T02:09:48.587Z,822.09
2022-11-17T02:10:51.735Z,822.51
2022-11-17T02:11:48.590Z,823.09
2022-11-17T02:12:48.593Z,822.81
2022-11-17T02:13:48.589Z,823.2
2022-11-17T02:14:48.591Z,823.57
2022-11-17T02:15:48.592Z,823
2022-11-17T02:16:48.596Z,823.65
2022-11-17T02:17:48.597Z,824.22
2022-11-17T02:18:48.599Z,823.73
2022-11-17T02:19:48.602Z,824.28
2022-11-17T02:20:49.643Z,824.26
2022-11-17T02:21:48.630Z,824.35
2022-11-17T02:22:48.606Z,824.4
2022-11-17T02:23:48.604Z,824.97
2022-11-17T02:24:48.605Z,824.99
2022-11-17T02:25:48.610Z,825.27
2022-11-17T02:26:48.737Z,825.41
2022-11-17T02:27:48.609Z,826.09
2022-11-17T02:28:48.609Z,826.12
2022-11-17T02:29:48.626Z,826.24
2022-11-17T02:30:48.614Z,826.01
2022-11-17T02:31:48.619Z,826.77
2022-11-17T02:32:48.618Z,827.17
2022-11-17T02:33:49.645Z,827.09
2022-11-17T02:34:48.631Z,827.48
2022-11-17T02:35:48.620Z,827.45
2022-11-17T02:36:48.623Z,827.73
2022-11-17T02:37:48.624Z,827.95
2022-11-17T02:38:48.623Z,827.86
2022-11-17T02:39:48.627Z,828.18
2022-11-17T02:40:48.627Z,828.22
2022-11-17T02:41:51.736Z,828.03
2022-11-17T02:42:48.667Z,828.73
2022-11-17T02:43:48.630Z,828.68
2022-11-17T02:44:48.633Z,828.98
2022-11-17T02:45:48.635Z,829.14
2022-11-17T02:46:48.642Z,829.26
2022-11-17T02:47:48.641Z,829.32
2022-11-17T02:48:48.638Z,829.61
2022-11-17T02:49:48.643Z,830.42
2022-11-17T02:50:48.643Z,830.41
2022-11-17T02:51:48.641Z,830.42
2022-11-17T02:52:48.647Z,830.99
2022-11-17T02:53:48.646Z,830.96
2022-11-17T02:54:48.647Z,830.73
2022-11-17T02:55:48.651Z,831.37
2022-11-17T02:56:48.651Z,831.02
2022-11-17T02:57:48.768Z,831.96
2022-11-17T02:58:48.657Z,831.94
2022-11-17T02:59:48.656Z,832.23
2022-11-17T03:00:48.657Z,832.31
2022-11-17T03:01:48.691Z,832.52
2022-11-17T03:02:48.664Z,832.81
2022-11-17T03:03:48.662Z,832.78
2022-11-17T03:04:48.664Z,833.61
2022-11-17T03:05:48.662Z,833.83
2022-11-17T03:06:48.666Z,833.53
2022-11-17T03:07:48.666Z,834.24
2022-11-17T03:08:48.666Z,834.36
2022-11-17T03:09:48.670Z,835.26
2022-11-17T03:10:48.670Z,835.23
2022-11-17T03:11:51.693Z,835.6
2022-11-17T03:12:48.677Z,835.4
2022-11-17T03:13:48.698Z,835.64
2022-11-17T03:14:48.674Z,835.07
2022-11-17T03:15:48.675Z,835.39
2022-11-17T03:16:48.678Z,835.65
2022-11-17T03:17:48.679Z,835.47
2022-11-17T03:18:51.667Z,835.55
2022-11-17T03:19:48.682Z,834.98
2022-11-17T03:20:48.687Z,836.14
2022-11-17T03:21:48.684Z,835.84
2022-11-17T03:22:48.685Z,836.13
2022-11-17T03:23:48.693Z,836.46
2022-11-17T03:24:48.689Z,836.41
2022-11-17T03:25:48.697Z,836.53
2022-11-17T03:26:48.692Z,836.13
2022-11-17T03:27:48.696Z,836.29
2022-11-17T03:28:48.700Z,835.98
2022-11-17T03:29:48.816Z,836.15
2022-11-17T03:30:48.784Z,835.65
2022-11-17T03:31:48.698Z,835.91
2022-11-17T03:32:48.703Z,835.92
2022-11-17T03:33:48.706Z,836.02
2022-11-17T03:34:48.703Z,835.6
2022-11-17T03:35:50.769Z,836.3
2022-11-17T03:36:48.705Z,836.25
2022-11-17T03:37:48.711Z,836.16
2022-11-17T03:38:48.708Z,836.34
2022-11-17T03:39:48.711Z,836.27
2022-11-17T03:40:48.734Z,836.38
2022-11-17T03:41:48.713Z,836.38
2022-11-17T03:42:48.733Z,836.14
2022-11-17T03:43:51.521Z,836.52
2022-11-17T03:44:48.720Z,836.55
2022-11-17T03:45:48.854Z,836.81
2022-11-17T03:46:48.721Z,837.19
2022-11-17T03:47:48.725Z,837.14
2022-11-17T03:48:48.722Z,837.42
2022-11-17T03:49:48.726Z,838.22
2022-11-17T03:50:48.750Z,837.88
2022-11-17T03:51:48.726Z,838.3
2022-11-17T03:52:48.733Z,838.12
2022-11-17T03:53:48.732Z,838.28
2022-11-17T03:54:51.501Z,838.53
2022-11-17T03:55:48.753Z,838.91
2022-11-17T03:56:48.737Z,838.83
2022-11-17T03:57:48.737Z,839.04
2022-11-17T03:58:48.738Z,839.13
2022-11-17T03:59:48.739Z,839.41
2022-11-17T04:00:48.773Z,839.47
2022-11-17T04:01:48.906Z,839.51
2022-11-17T04:02:48.743Z,838.94
2022-11-17T04:03:48.751Z,839.4
2022-11-17T04:04:48.750Z,839.11
2022-11-17T04:05:50.180Z,839.32
2022-11-17T04:06:48.750Z,839.33
2022-11-17T04:07:48.753Z,839.22
2022-11-17T04:08:48.763Z,839.47
2022-11-17T04:09:48.756Z,839.56
2022-11-17T04:10:48.758Z,839.38
2022-11-17T04:11:48.759Z,838.92
2022-11-17T04:12:48.760Z,839.16
2022-11-17T04:13:48.768Z,838.98
2022-11-17T04:14:48.763Z,838.59
2022-11-17T04:15:48.764Z,838.8
2022-11-17T04:16:51.968Z,838.71
2022-11-17T04:17:48.769Z,838.5
2022-11-17T04:18:48.769Z,838.85
2022-11-17T04:19:48.773Z,838.33
2022-11-17T04:20:48.773Z,838.89
2022-11-17T04:21:48.771Z,839.25
2022-11-17T04:22:48.775Z,840.12
2022-11-17T04:23:48.781Z,840.27
2022-11-17T04:24:48.775Z,840.09
2022-11-17T04:25:48.776Z,840.32
2022-11-17T04:26:48.830Z,839.92
2022-11-17T04:27:51.540Z,839.96
2022-11-17T04:28:48.784Z,840.39
2022-11-17T04:29:48.782Z,840.76
2022-11-17T04:30:48.789Z,840.45
2022-11-17T04:31:48.787Z,840.63
2022-11-17T04:32:48.909Z,841.3
2022-11-17T04:33:48.792Z,841.48
2022-11-17T04:34:48.790Z,841.62
2022-11-17T04:35:48.792Z,842.04
2022-11-17T04:36:48.793Z,841.84
2022-11-17T04:37:48.797Z,842.36
2022-11-17T04:38:48.800Z,842.19
2022-11-17T04:39:48.800Z,842.03
2022-11-17T04:40:48.804Z,842.16
2022-11-17T04:41:48.799Z,841.99
2022-11-17T04:42:48.830Z,842.13
2022-11-17T04:43:48.807Z,842.09
2022-11-17T04:44:48.813Z,842.19
2022-11-17T04:45:48.807Z,842.52
2022-11-17T04:46:48.811Z,842.9
2022-11-17T04:47:48.813Z,842.51
2022-11-17T04:48:48.930Z,842.85
2022-11-17T04:49:48.812Z,843.38
2022-11-17T04:50:48.813Z,843.74
2022-11-17T04:51:48.821Z,843.54
2022-11-17T04:52:48.820Z,843.32
2022-11-17T04:53:48.815Z,843.34
2022-11-17T04:54:48.824Z,843.32
2022-11-17T04:55:48.819Z,842.9
2022-11-17T04:56:48.829Z,842.79
2022-11-17T04:57:48.825Z,842.64
2022-11-17T04:58:48.831Z,843.08
2022-11-17T04:59:48.831Z,843.14
2022-11-17T05:00:48.830Z,843.37
2022-11-17T05:01:48.905Z,843.35
2022-11-17T05:02:48.833Z,843.21
2022-11-17T05:03:48.836Z,843.49
2022-11-17T05:04:48.964Z,843.87
2022-11-17T05:05:48.836Z,843.96
2022-11-17T05:06:48.837Z,843.75
2022-11-17T05:07:48.840Z,843.97
2022-11-17T05:08:48.846Z,843.51
2022-11-17T05:09:48.844Z,843
2022-11-17T05:10:48.902Z,842.97
2022-11-17T05:11:48.846Z,843.19
2022-11-17T05:12:48.847Z,843.15
2022-11-17T05:13:48.848Z,843.43
2022-11-17T05:14:48.854Z,843.42
2022-11-17T05:15:48.850Z,844.01
2022-11-17T05:16:48.874Z,843.83
2022-11-17T05:17:48.856Z,844.04
2022-11-17T05:18:48.855Z,844.31
2022-11-17T05:19:48.857Z,844.59
2022-11-17T05:20:48.981Z,844.05
2022-11-17T05:21:48.889Z,843.86
2022-11-17T05:22:48.867Z,843.68
2022-11-17T05:23:48.870Z,843.86
2022-11-17T05:24:48.868Z,844.13
2022-11-17T05:25:48.869Z,843.65
2022-11-17T05:26:48.899Z,843.13
2022-11-17T05:27:48.874Z,842.51
2022-11-17T05:28:48.877Z,842.8
2022-11-17T05:29:48.874Z,842.33
2022-11-17T05:30:48.879Z,841.78
2022-11-17T05:31:48.945Z,841.99
2022-11-17T05:32:48.879Z,841.19
2022-11-17T05:33:48.879Z,841.1
2022-11-17T05:34:48.878Z,840.38
2022-11-17T05:35:48.883Z,840.58
2022-11-17T05:36:49.023Z,840.92
2022-11-17T05:37:48.885Z,842.51
2022-11-17T05:38:51.972Z,843.84
2022-11-17T05:39:48.889Z,846.14
2022-11-17T05:40:48.910Z,846.54
2022-11-17T05:41:48.922Z,846.38
2022-11-17T05:42:51.781Z,846.26
2022-11-17T05:43:48.912Z,845.19
2022-11-17T05:44:48.893Z,844.57
2022-11-17T05:45:48.898Z,844.12
2022-11-17T05:46:48.919Z,843.5
2022-11-17T05:47:48.899Z,843.26
2022-11-17T05:48:48.901Z,842.71
2022-11-17T05:49:48.900Z,842.31
2022-11-17T05:50:48.902Z,841.86
2022-11-17T05:51:52.639Z,841.77
2022-11-17T05:52:49.024Z,841.86
2022-11-17T05:53:48.907Z,841.26
2022-11-17T05:54:48.913Z,841.32
2022-11-17T05:55:48.911Z,841.13
2022-11-17T05:56:48.937Z,841.13
2022-11-17T05:57:48.917Z,841.17
2022-11-17T05:58:48.915Z,840.88
2022-11-17T05:59:48.917Z,840.29
2022-11-17T06:00:48.923Z,839.61
2022-11-17T06:01:48.949Z,839.8
2022-11-17T06:02:48.924Z,839.58
2022-11-17T06:03:48.987Z,839.01
2022-11-17T06:04:48.923Z,838.71
2022-11-17T06:05:48.931Z,838.52
2022-11-17T06:06:48.950Z,838.34
2022-11-17T06:07:48.933Z,838.01
2022-11-17T06:08:48.959Z,837.88
2022-11-17T06:09:48.937Z,837.46
2022-11-17T06:10:51.818Z,837.39
2022-11-17T06:11:48.964Z,837.15
2022-11-17T06:12:48.940Z,836.78
2022-11-17T06:13:48.937Z,836.21
2022-11-17T06:14:48.944Z,836.01
2022-11-17T06:15:48.947Z,835.74
2022-11-17T06:16:48.968Z,835.63
2022-11-17T06:17:48.948Z,835.43
2022-11-17T06:18:48.946Z,835.48
2022-11-17T06:19:48.949Z,835.07
2022-11-17T06:20:48.947Z,834.46
2022-11-17T06:22:10.936Z,834.51
2022-11-17T06:22:48.954Z,834.61
2022-11-17T06:23:48.953Z,835.18
2022-11-17T06:24:48.978Z,834.8
2022-11-17T06:25:48.956Z,835.28
2022-11-17T06:26:48.960Z,835.43
2022-11-17T06:27:48.963Z,835.4
2022-11-17T06:28:48.972Z,835.47
2022-11-17T06:29:48.962Z,835.65
2022-11-17T06:30:48.960Z,835.48
2022-11-17T06:31:48.964Z,836.08
2022-11-17T06:32:51.739Z,836.11
2022-11-17T06:33:48.969Z,836.85
2022-11-17T06:34:53.813Z,837.1
2022-11-17T06:35:48.971Z,836.95
2022-11-17T06:36:48.969Z,836.85
2022-11-17T06:37:48.974Z,836.67
2022-11-17T06:38:48.973Z,836.54
2022-11-17T06:39:48.977Z,836.32
2022-11-17T06:40:49.015Z,836.11
2022-11-17T06:41:48.978Z,835.5
2022-11-17T06:42:48.987Z,835.57
2022-11-17T06:43:51.774Z,834.47
2022-11-17T06:44:48.982Z,834.26
2022-11-17T06:45:48.986Z,833.55
2022-11-17T06:46:49.468Z,832.98
2022-11-17T06:47:48.996Z,832.29
2022-11-17T06:48:48.987Z,831.88
2022-11-17T06:49:48.992Z,830.8
2022-11-17T06:50:48.993Z,830.53
2022-11-17T06:51:49.014Z,830.06
2022-11-17T06:52:49.025Z,829.61
2022-11-17T06:53:49.014Z,828.61
2022-11-17T06:54:51.899Z,828.69
2022-11-17T06:55:49.020Z,827.3
2022-11-17T06:56:49.152Z,826.62
2022-11-17T06:57:53.334Z,825.7
2022-11-17T06:58:49.029Z,825.27
2022-11-17T06:59:49.029Z,825.15
2022-11-17T07:00:49.061Z,824.6
2022-11-17T07:01:49.050Z,823.86
2022-11-17T07:02:49.063Z,823.32
2022-11-17T07:03:49.040Z,822.97
2022-11-17T07:04:49.052Z,822.35
2022-11-17T07:05:49.232Z,822.63
2022-11-17T07:06:49.033Z,822.39
2022-11-17T07:07:49.036Z,821.84
2022-11-17T07:08:49.045Z,822.13
2022-11-17T07:09:49.086Z,822.08
2022-11-17T07:10:49.482Z,822.08
2022-11-17T07:11:49.046Z,821.83
2022-11-17T07:12:49.175Z,821.44
2022-11-17T07:13:49.055Z,821.99
2022-11-17T07:14:49.054Z,821.83
2022-11-17T07:15:49.050Z,821.3
2022-11-17T07:16:49.056Z,821.08
2022-11-17T07:17:49.052Z,821.33
2022-11-17T07:18:49.050Z,821.39
2022-11-17T07:19:49.051Z,821.22
2022-11-17T07:20:49.053Z,821.14
2022-11-17T07:21:49.057Z,821.64
2022-11-17T07:22:49.065Z,822.35
2022-11-17T07:23:49.070Z,822.3
2022-11-17T07:24:49.073Z,823.13
2022-11-17T07:25:49.069Z,823.04
2022-11-17T07:26:49.073Z,823.25
2022-11-17T07:27:49.071Z,823.27
2022-11-17T07:28:49.099Z,823.51
2022-11-17T07:29:49.074Z,823.47
2022-11-17T07:30:49.073Z,823.95
2022-11-17T07:31:49.070Z,824.68
2022-11-17T07:32:53.457Z,825.06
2022-11-17T07:33:49.072Z,825.31
2022-11-17T07:34:49.082Z,825.39
2022-11-17T07:35:49.081Z,825.78
2022-11-17T07:36:49.078Z,825.92
2022-11-17T07:37:49.079Z,826.21
2022-11-17T07:38:49.079Z,826.64
2022-11-17T07:39:49.086Z,826.56
2022-11-17T07:40:49.088Z,826.36
2022-11-17T07:41:49.096Z,826.74
2022-11-17T07:42:49.132Z,827.15
2022-11-17T07:43:49.091Z,827.21
2022-11-17T07:44:50.135Z,827.61
2022-11-17T07:45:49.097Z,828.15
2022-11-17T07:46:49.091Z,827.83
2022-11-17T07:47:49.094Z,828.65
2022-11-17T07:48:49.097Z,828.96
2022-11-17T07:49:49.108Z,829.09
2022-11-17T07:50:49.100Z,829.46
2022-11-17T07:51:49.100Z,830.15
2022-11-17T07:52:49.104Z,830.48
2022-11-17T07:53:49.101Z,830.36
2022-11-17T07:54:49.110Z,831.28
2022-11-17T07:55:49.111Z,831.45
2022-11-17T07:56:49.113Z,832.1
2022-11-17T07:57:52.161Z,832.1
2022-11-17T07:58:49.113Z,832.28
2022-11-17T07:59:49.127Z,832.56
2022-11-17T08:00:49.295Z,833.41
2022-11-17T08:01:49.117Z,834.32
2022-11-17T08:02:49.120Z,834.65
2022-11-17T08:03:49.197Z,834.81
2022-11-17T08:04:49.129Z,835.75
2022-11-17T08:05:49.147Z,835.85
2022-11-17T08:06:49.122Z,836.1
2022-11-17T08:07:49.128Z,836.35
2022-11-17T08:08:49.129Z,837.11
2022-11-17T08:09:49.139Z,837.24
2022-11-17T08:10:49.134Z,837.92
2022-11-17T08:11:49.135Z,838.24
2022-11-17T08:12:49.138Z,838.96
2022-11-17T08:13:49.134Z,839.67
2022-11-17T08:14:49.134Z,839.91
2022-11-17T08:15:49.139Z,840.16
2022-11-17T08:16:49.253Z,840.79
2022-11-17T08:17:49.145Z,840.36
2022-11-17T08:18:52.258Z,840.32
2022-11-17T08:19:49.148Z,840.66
2022-11-17T08:20:49.149Z,841
2022-11-17T08:21:49.139Z,841.4
2022-11-17T08:22:49.144Z,841.36
2022-11-17T08:23:49.149Z,841.86
2022-11-17T08:24:49.144Z,841.66
2022-11-17T08:25:49.144Z,841.76
2022-11-17T08:26:49.155Z,841.77
2022-11-17T08:27:49.154Z,842.21
2022-11-17T08:28:52.236Z,842.55
2022-11-17T08:29:49.160Z,842.4
2022-11-17T08:30:49.161Z,842.33
2022-11-17T08:31:49.156Z,842.81
2022-11-17T08:32:49.198Z,843.44
2022-11-17T08:33:49.167Z,843.77
2022-11-17T08:34:49.175Z,844.4
2022-11-17T08:35:49.167Z,845.07
2022-11-17T08:36:49.171Z,846.42
2022-11-17T08:37:51.945Z,848.95
2022-11-17T08:38:49.166Z,852.36
2022-11-17T08:39:49.183Z,855.49
2022-11-17T08:40:49.177Z,858.39
2022-11-17T08:41:49.172Z,861.23
2022-11-17T08:42:49.178Z,862.7
2022-11-17T08:43:49.201Z,863.76
2022-11-17T08:44:49.173Z,865.32
2022-11-17T08:45:49.183Z,866.73
2022-11-17T08:46:49.179Z,867.69
2022-11-17T08:47:49.187Z,868.44
2022-11-17T08:48:56.781Z,868.98
2022-11-17T08:49:49.190Z,869.3
2022-11-17T08:50:49.183Z,868.59
2022-11-17T08:51:49.192Z,869.58
2022-11-17T08:52:49.195Z,869.04
2022-11-17T08:53:49.196Z,869.59
2022-11-17T08:54:49.203Z,869.23
2022-11-17T08:55:49.277Z,869.52
2022-11-17T08:56:49.221Z,868.7
2022-11-17T08:57:49.193Z,869.56
2022-11-17T08:58:49.209Z,869.69
2022-11-17T08:59:50.241Z,869.77
2022-11-17T09:00:49.219Z,870.36
2022-11-17T09:01:49.196Z,870.48
2022-11-17T09:02:49.206Z,870.7
2022-11-17T09:03:49.199Z,870.93
2022-11-17T09:04:49.319Z,871.1
2022-11-17T09:05:49.203Z,871.92
2022-11-17T09:06:49.203Z,872.05
2022-11-17T09:07:49.331Z,872.56
2022-11-17T09:08:49.262Z,872.82
2022-11-17T09:09:49.204Z,873.16
2022-11-17T09:10:52.016Z,873.55
2022-11-17T09:11:50.232Z,873.02
2022-11-17T09:12:49.203Z,873.61
2022-11-17T09:13:49.216Z,874.34
2022-11-17T09:14:49.213Z,874.45
2022-11-17T09:15:49.211Z,874.83
2022-11-17T09:16:49.215Z,874.93
2022-11-17T09:17:49.216Z,874.87
2022-11-17T09:18:49.210Z,874.56
2022-11-17T09:19:49.219Z,875.27
2022-11-17T09:20:49.345Z,875.15
2022-11-17T09:21:51.982Z,875.36
2022-11-17T09:22:49.224Z,875.4
2022-11-17T09:23:49.219Z,875.93
2022-11-17T09:24:49.221Z,875.86
2022-11-17T09:25:49.221Z,875.51
2022-11-17T09:26:49.230Z,875.84
2022-11-17T09:27:49.288Z,875.57
2022-11-17T09:28:49.227Z,876.3
2022-11-17T09:29:49.231Z,875.62
2022-11-17T09:30:49.230Z,875.59
2022-11-17T09:31:49.299Z,876.35
2022-11-17T09:32:49.360Z,876.45
2022-11-17T09:33:49.242Z,877.46
2022-11-17T09:34:49.278Z,877.89
2022-11-17T09:35:49.247Z,878.93
2022-11-17T09:36:49.358Z,879.91
2022-11-17T09:37:49.248Z,880.59
2022-11-17T09:38:49.246Z,881.4
2022-11-17T09:39:49.255Z,882.01
2022-11-17T09:40:49.244Z,882.68
2022-11-17T09:41:49.253Z,883.83
2022-11-17T09:42:49.255Z,884.32
2022-11-17T09:43:49.248Z,885.13
2022-11-17T09:44:49.260Z,885.7
2022-11-17T09:45:49.259Z,886.57
2022-11-17T09:46:49.253Z,887.46
2022-11-17T09:47:49.255Z,888.57
2022-11-17T09:48:51.315Z,888.79
2022-11-17T09:49:56.925Z,888.92
2022-11-17T09:50:51.301Z,889.58
2022-11-17T09:51:51.339Z,890.26
2022-11-17T09:52:51.323Z,890.68
2022-11-17T09:53:51.302Z,890.95
2022-11-17T09:54:54.164Z,891.51
2022-11-17T09:55:51.303Z,891.84
2022-11-17T09:56:51.304Z,892.73
2022-11-17T09:57:51.306Z,892.82
2022-11-17T09:58:51.315Z,893.38
2022-11-17T09:59:51.314Z,893.5
2022-11-17T10:00:51.309Z,894.31
2022-11-17T10:01:51.494Z,894.62
2022-11-17T10:02:51.331Z,894.41
2022-11-17T10:03:51.456Z,895.66
2022-11-17T10:04:51.322Z,895.66
2022-11-17T10:05:54.111Z,896.73
2022-11-17T10:06:51.400Z,897.55
2022-11-17T10:07:51.488Z,897.26
2022-11-17T10:08:51.332Z,897.56
2022-11-17T10:09:51.328Z,898.03
2022-11-17T10:10:51.334Z,898.35
2022-11-17T10:11:51.335Z,898.65
2022-11-17T10:12:51.348Z,899.88
2022-11-17T10:13:51.335Z,900.59
2022-11-17T10:14:51.345Z,901.27
2022-11-17T10:15:51.371Z,902.63
2022-11-17T10:16:51.411Z,903.08
2022-11-17T10:17:51.490Z,904.68
2022-11-17T10:18:51.345Z,905.87
2022-11-17T10:19:51.361Z,906.66
2022-11-17T10:20:51.353Z,908.32
2022-11-17T10:21:51.362Z,909.99
2022-11-17T10:22:51.367Z,912.52
2022-11-17T10:23:51.373Z,914.72
2022-11-17T10:24:51.362Z,916.11
2022-11-17T10:25:51.356Z,917.62
2022-11-17T10:26:51.348Z,918.81
2022-11-17T10:27:51.360Z,919.41
2022-11-17T10:28:51.355Z,919.92
2022-11-17T10:29:51.366Z,920.77
2022-11-17T10:30:51.364Z,921.41
2022-11-17T10:31:51.362Z,922.2
2022-11-17T10:32:51.364Z,922.93
2022-11-17T10:33:51.407Z,923.23
2022-11-17T10:34:51.366Z,924.31
2022-11-17T10:35:51.371Z,924.65
2022-11-17T10:36:51.372Z,924.7
2022-11-17T10:37:51.367Z,925.02
2022-11-17T10:38:51.391Z,925.15
2022-11-17T10:39:51.466Z,925.4
2022-11-17T10:40:51.374Z,925.68
2022-11-17T10:41:51.395Z,926.29
2022-11-17T10:42:51.380Z,925.53
2022-11-17T10:43:51.387Z,925.75
2022-11-17T10:44:51.397Z,925.8
2022-11-17T10:45:51.386Z,925.42
2022-11-17T10:46:52.644Z,924.93
2022-11-17T10:47:51.393Z,924.74
2022-11-17T10:48:54.401Z,924.55
2022-11-17T10:49:51.388Z,923.9
2022-11-17T10:50:51.388Z,923.43
2022-11-17T10:51:51.394Z,922.65
2022-11-17T10:52:51.412Z,921.48
2022-11-17T10:53:51.399Z,920.45
2022-11-17T10:54:51.403Z,919.55
2022-11-17T10:55:51.506Z,918.68
2022-11-17T10:56:51.399Z,918.32
2022-11-17T10:57:51.427Z,918.12
2022-11-17T10:58:51.412Z,918.58
2022-11-17T10:59:56.407Z,919.35
2022-11-17T11:00:51.462Z,920.05
2022-11-17T11:01:51.461Z,920.92
2022-11-17T11:02:51.438Z,921.59
2022-11-17T11:03:51.418Z,922.35
2022-11-17T11:04:51.414Z,923.56
2022-11-17T11:05:51.412Z,925.23
2022-11-17T11:06:51.468Z,926.96
2022-11-17T11:07:51.444Z,928.64
2022-11-17T11:08:51.419Z,930.72
2022-11-17T11:09:51.416Z,931.92
2022-11-17T11:10:51.496Z,933.77
2022-11-17T11:11:51.451Z,936.32
2022-11-17T11:12:51.444Z,938.31
2022-11-17T11:13:51.431Z,940.62
2022-11-17T11:14:51.427Z,942.82
2022-11-17T11:15:51.427Z,944.79
2022-11-17T11:16:51.432Z,946.79
2022-11-17T11:17:51.459Z,947.85
2022-11-17T11:18:51.434Z,949.09
2022-11-17T11:19:51.439Z,950.35
2022-11-17T11:20:51.438Z,950.62
2022-11-17T11:21:51.444Z,951.38
2022-11-17T11:22:51.473Z,951.61
2022-11-17T11:23:51.447Z,952.71
2022-11-17T11:24:51.448Z,952.88
2022-11-17T11:25:51.446Z,952.19
2022-11-17T11:26:51.443Z,953.04
2022-11-17T11:27:51.505Z,953.1
2022-11-17T11:28:54.763Z,952.83
2022-11-17T11:29:51.455Z,952.75
2022-11-17T11:30:51.468Z,952.95
2022-11-17T11:31:51.461Z,953.23
2022-11-17T11:32:51.486Z,953.87
2022-11-17T11:33:51.456Z,954.54
2022-11-17T11:34:51.462Z,955.49
2022-11-17T11:35:51.461Z,956.77
2022-11-17T11:36:51.468Z,957.63
2022-11-17T11:37:51.532Z,958.24
2022-11-17T11:38:51.465Z,958.97
2022-11-17T11:39:51.703Z,959.85
2022-11-17T11:40:51.504Z,960.89
2022-11-17T11:41:51.475Z,962.15
2022-11-17T11:42:51.541Z,962.92
2022-11-17T11:43:51.512Z,963.57
2022-11-17T11:44:51.476Z,965.28
2022-11-17T11:45:51.492Z,966.29
2022-11-17T11:46:51.488Z,967.68
2022-11-17T11:47:51.507Z,968.37
2022-11-17T11:48:51.481Z,969.33
2022-11-17T11:49:51.493Z,970.06
2022-11-17T11:50:51.486Z,970.13
2022-11-17T11:51:51.497Z,970.4
2022-11-17T11:52:51.516Z,971.03
2022-11-17T11:53:51.490Z,971.12
2022-11-17T11:54:51.497Z,971.68
2022-11-17T11:55:51.500Z,972.22
2022-11-17T11:56:51.497Z,972.86
2022-11-17T11:57:51.517Z,973.38
2022-11-17T11:58:51.499Z,974.09
2022-11-17T11:59:57.212Z,974.85
2022-11-17T12:00:51.502Z,975.57
2022-11-17T12:01:51.560Z,976.04
2022-11-17T12:02:51.588Z,977.24
2022-11-17T12:03:51.511Z,977.71
2022-11-17T12:04:51.506Z,978.63
2022-11-17T12:05:51.515Z,979.98
2022-11-17T12:06:51.555Z,980.48
2022-11-17T12:07:51.537Z,981.49
2022-11-17T12:08:51.513Z,982.33
2022-11-17T12:09:51.520Z,983.81
2022-11-17T12:10:52.590Z,984.69
2022-11-17T12:11:51.526Z,985.73
2022-11-17T12:12:51.557Z,986.48
2022-11-17T12:13:54.262Z,987.49
2022-11-17T12:14:51.523Z,988.89
2022-11-17T12:15:51.555Z,990.6
2022-11-17T12:16:51.537Z,992.14
2022-11-17T12:17:51.551Z,993.37
2022-11-17T12:18:51.541Z,994.89
2022-11-17T12:19:51.536Z,996.29
2022-11-17T12:20:51.535Z,997.57
2022-11-17T12:21:54.628Z,999.03
2022-11-17T12:22:51.565Z,1000.26
2022-11-17T12:23:51.545Z,1001.23
2022-11-17T12:24:51.580Z,1002.47
2022-11-17T12:25:54.029Z,1003.12
2022-11-17T12:26:51.551Z,1003.76
2022-11-17T12:27:51.571Z,1004.79
2022-11-17T12:28:51.555Z,1004.86
2022-11-17T12:29:51.555Z,1005.29
2022-11-17T12:30:51.555Z,1005.81